Milngavie, United Kingdom
Current Conditions -  °F | °C
As of 8:20 AM on Friday 19 Dec 2014 (Local Time) from EGPF Reporting Station
Light Rain Light Rain  
Wind Chill: 30°   Ceiling: Unl
Heat Index: 39°   Visibility: 6mi
Dew Point: 32°   Wind: 17mph
Humidity: 75%   Direction: 280°W
Pressure: 29.56"   Gusts: 29mph
Location:  55.94°N, 4.32°W
Report Text: EGPF 190820Z AUTO 28015G25KT 9999 -RA SCT036/// //////TCU 04/00 Q1001
Loading
Personal Weather Stations






























Interactive Weather Map New forecast layout! Learn more

10-Day Weather Forecast

Advertisements
Track Severe Weather on mobile